Time,TemperatureF,DewpointF,PressureIn,WindDirection,WindDirectionDegrees,WindSpeedMPH,WindSpeedGustMPH,Humidity,HourlyPrecipIn,Conditions,Clouds,dailyrainin,SoftwareType,DateUTC
2013-02-24 00:00:00,37.1,31.1,29.67,WNW,293,0.0,0.0,79,0.00,,,0.00,WUHU216HW,2013-02-24 05:00:00,
2013-02-24 00:05:00,37.1,31.1,29.67,North,0,0.0,0.0,79,0.00,,,0.00,WUHU216HW,2013-02-24 05:05:00,
2013-02-24 00:10:00,36.9,31.0,29.67,ENE,68,0.0,0.9,79,0.00,,,0.00,WUHU216HW,2013-02-24 05:10:00,
2013-02-24 00:15:00,36.9,31.0,29.66,ENE,68,0.0,0.9,79,0.00,,,0.00,WUHU216HW,2013-02-24 05:15:00,
2013-02-24 00:20:00,36.7,30.8,29.66,South,180,0.4,1.1,79,0.00,,,0.00,WUHU216HW,2013-02-24 05:20:00,
2013-02-24 00:25:00,36.5,30.6,29.66,West,270,0.7,1.1,79,0.00,,,0.00,WUHU216HW,2013-02-24 05:25:00,
2013-02-24 00:30:00,36.5,31.0,29.66,WNW,293,0.0,0.9,80,0.00,,,0.00,WUHU216HW,2013-02-24 05:30:00,
2013-02-24 00:35:00,36.4,30.8,29.66,South,180,0.0,0.9,80,0.00,,,0.00,WUHU216HW,2013-02-24 05:35:00,
2013-02-24 00:40:00,36.0,30.4,29.66,South,180,0.0,0.9,80,0.00,,,0.00,WUHU216HW,2013-02-24 05:40:00,
2013-02-24 00:45:00,35.6,30.1,29.67,South,180,0.0,0.0,80,0.00,,,0.00,WUHU216HW,2013-02-24 05:45:00,
2013-02-24 00:50:00,35.6,30.6,29.67,South,180,0.4,0.7,82,0.00,,,0.00,WUHU216HW,2013-02-24 05:50:00,
2013-02-24 00:55:00,35.6,30.6,29.67,South,180,0.4,1.1,82,0.00,,,0.00,WUHU216HW,2013-02-24 05:55:00,
2013-02-24 01:00:00,35.5,30.4,29.67,SE,135,0.0,1.1,82,0.00,,,0.00,WUHU216HW,2013-02-24 06:00:00,
2013-02-24 01:05:00,35.3,30.2,29.68,SE,135,0.0,1.1,82,0.00,,,0.00,WUHU216HW,2013-02-24 06:05:00,
2013-02-24 01:10:00,35.3,30.2,29.68,SE,135,0.0,1.1,82,0.00,,,0.00,WUHU216HW,2013-02-24 06:10:00,
2013-02-24 01:15:00,35.3,30.0,29.68,SE,135,0.0,0.4,81,0.00,,,0.00,WUHU216HW,2013-02-24 06:15:00,
2013-02-24 01:20:00,35.5,30.8,29.68,SE,135,0.0,0.4,83,0.00,,,0.00,WUHU216HW,2013-02-24 06:20:00,
2013-02-24 01:25:00,35.5,30.8,29.68,SE,135,0.7,0.7,83,0.00,,,0.00,WUHU216HW,2013-02-24 06:25:00,
2013-02-24 01:30:00,35.5,31.1,29.68,SE,135,0.2,1.3,84,0.00,,,0.00,WUHU216HW,2013-02-24 06:30:00,
2013-02-24 01:35:00,35.3,30.9,29.68,SE,135,0.7,1.3,84,0.00,,,0.00,WUHU216HW,2013-02-24 06:35:00,
2013-02-24 01:40:00,35.1,30.7,29.68,SE,135,0.2,1.1,84,0.00,,,0.00,WUHU216HW,2013-02-24 06:40:00,
2013-02-24 01:45:00,35.1,30.7,29.68,SE,135,0.0,1.1,84,0.00,,,0.00,WUHU216HW,2013-02-24 06:45:00,
2013-02-24 01:50:00,34.9,30.3,29.68,SE,135,0.0,0.2,83,0.00,,,0.00,WUHU216HW,2013-02-24 06:50:00,
2013-02-24 01:55:00,35.1,30.4,29.67,SE,135,0.4,0.4,83,0.00,,,0.00,WUHU216HW,2013-02-24 06:55:00,
2013-02-24 02:00:00,34.9,30.3,29.67,SE,135,0.0,0.7,83,0.00,,,0.00,WUHU216HW,2013-02-24 07:00:00,
2013-02-24 02:05:00,34.9,30.5,29.67,SE,135,1.1,1.3,84,0.00,,,0.00,WUHU216HW,2013-02-24 07:05:00,
2013-02-24 02:10:00,34.9,30.3,29.67,SE,135,0.0,1.3,83,0.00,,,0.00,WUHU216HW,2013-02-24 07:10:00,
2013-02-24 02:15:00,34.7,30.3,29.67,SE,135,0.0,1.1,84,0.00,,,0.00,WUHU216HW,2013-02-24 07:15:00,
2013-02-24 02:20:00,34.6,30.2,29.66,SE,135,0.0,1.1,84,0.00,,,0.00,WUHU216HW,2013-02-24 07:20:00,
2013-02-24 02:25:00,34.6,30.2,29.66,SE,135,0.0,0.0,84,0.00,,,0.00,WUHU216HW,2013-02-24 07:25:00,
2013-02-24 02:30:00,34.6,30.2,29.66,SE,135,0.0,0.0,84,0.00,,,0.00,WUHU216HW,2013-02-24 07:30:00,
2013-02-24 02:35:00,34.6,30.2,29.66,SE,135,0.0,0.0,84,0.00,,,0.00,WUHU216HW,2013-02-24 07:35:00,
2013-02-24 02:40:00,34.7,30.3,29.66,SE,135,0.0,0.7,84,0.00,,,0.00,WUHU216HW,2013-02-24 07:40:00,
2013-02-24 02:45:00,34.7,30.3,29.67,SE,135,0.7,1.1,84,0.00,,,0.00,WUHU216HW,2013-02-24 07:45:00,
2013-02-24 02:50:00,34.6,30.4,29.67,NW,315,1.1,1.8,85,0.00,,,0.00,WUHU216HW,2013-02-24 07:50:00,
2013-02-24 02:55:00,34.6,30.2,29.68,NW,315,0.7,1.8,84,0.00,,,0.00,WUHU216HW,2013-02-24 07:55:00,
2013-02-24 03:00:00,34.4,30.0,29.68,NW,315,0.0,1.8,84,0.00,,,0.00,WUHU216HW,2013-02-24 08:00:00,
2013-02-24 03:05:00,34.6,30.4,29.68,NNE,23,0.4,2.5,85,0.00,,,0.00,WUHU216HW,2013-02-24 08:05:00,
2013-02-24 03:10:00,35.1,31.0,29.69,NW,315,6.9,6.9,85,0.00,,,0.00,WUHU216HW,2013-02-24 08:10:00,
2013-02-24 03:15:00,36.5,31.5,29.69,NNW,338,7.8,9.4,82,0.00,,,0.00,WUHU216HW,2013-02-24 08:15:00,
2013-02-24 03:20:00,37.3,31.7,29.69,NW,315,4.9,10.1,80,0.00,,,0.00,WUHU216HW,2013-02-24 08:20:00,
2013-02-24 03:25:00,37.6,31.7,29.69,West,270,2.2,10.1,79,0.00,,,0.00,WUHU216HW,2013-02-24 08:25:00,
2013-02-24 03:30:00,37.6,31.7,29.68,NW,315,2.7,8.5,79,0.00,,,0.00,WUHU216HW,2013-02-24 08:30:00,
2013-02-24 03:35:00,37.6,31.4,29.68,NNW,338,5.4,5.4,78,0.00,,,0.00,WUHU216HW,2013-02-24 08:35:00,
2013-02-24 03:40:00,37.6,31.4,29.68,NW,315,4.0,5.4,78,0.00,,,0.00,WUHU216HW,2013-02-24 08:40:00,
2013-02-24 03:45:00,37.6,31.1,29.68,NNW,338,4.0,8.5,77,0.00,,,0.00,WUHU216HW,2013-02-24 08:45:00,
2013-02-24 03:50:00,37.4,30.9,29.68,NW,315,8.3,8.5,77,0.00,,,0.00,WUHU216HW,2013-02-24 08:50:00,
2013-02-24 03:55:00,37.4,30.6,29.68,NW,315,7.2,8.3,76,0.00,,,0.00,WUHU216HW,2013-02-24 08:55:00,
2013-02-24 04:00:00,37.3,30.4,29.67,NNW,338,6.3,8.3,76,0.00,,,0.00,WUHU216HW,2013-02-24 09:00:00,
2013-02-24 04:05:00,37.1,29.9,29.68,NW,315,3.8,8.1,75,0.00,,,0.00,WUHU216HW,2013-02-24 09:05:00,
2013-02-24 04:10:00,37.1,29.9,29.67,NNW,338,5.1,8.1,75,0.00,,,0.00,WUHU216HW,2013-02-24 09:10:00,
2013-02-24 04:15:00,37.1,29.5,29.67,WNW,293,4.3,6.9,74,0.00,,,0.00,WUHU216HW,2013-02-24 09:15:00,
2013-02-24 04:20:00,37.1,29.5,29.68,NNW,338,2.9,5.6,74,0.00,,,0.00,WUHU216HW,2013-02-24 09:20:00,
2013-02-24 04:25:00,36.7,29.5,29.68,NNW,338,3.8,5.4,75,0.00,,,0.00,WUHU216HW,2013-02-24 09:25:00,
2013-02-24 04:30:00,36.7,29.5,29.68,NNW,338,3.1,5.4,75,0.00,,,0.00,WUHU216HW,2013-02-24 09:30:00,
2013-02-24 04:35:00,36.7,29.5,29.68,NNW,338,1.8,4.7,75,0.00,,,0.00,WUHU216HW,2013-02-24 09:35:00,
2013-02-24 04:40:00,36.5,29.3,29.68,NE,45,0.0,4.7,75,0.00,,,0.00,WUHU216HW,2013-02-24 09:40:00,
2013-02-24 04:45:00,36.4,28.8,29.68,NNW,338,1.8,4.5,74,0.00,,,0.00,WUHU216HW,2013-02-24 09:45:00,
2013-02-24 04:50:00,36.4,28.8,29.68,West,270,3.4,6.5,74,0.00,,,0.00,WUHU216HW,2013-02-24 09:50:00,
2013-02-24 04:55:00,36.4,28.8,29.68,NNW,338,1.6,6.5,74,0.00,,,0.00,WUHU216HW,2013-02-24 09:55:00,
2013-02-24 05:00:00,36.2,28.6,29.68,NNW,338,2.2,4.7,74,0.00,,,0.00,WUHU216HW,2013-02-24 10:00:00,
2013-02-24 05:05:00,35.8,28.3,29.68,SW,225,0.4,2.2,74,0.00,,,0.00,WUHU216HW,2013-02-24 10:05:00,
2013-02-24 05:10:00,35.3,28.1,29.68,NNW,338,1.1,2.2,75,0.00,,,0.00,WUHU216HW,2013-02-24 10:10:00,
2013-02-24 05:15:00,34.7,27.5,29.68,NE,45,0.0,1.3,75,0.00,,,0.00,WUHU216HW,2013-02-24 10:15:00,
2013-02-24 05:20:00,34.2,27.6,29.68,SE,135,0.7,1.1,77,0.00,,,0.00,WUHU216HW,2013-02-24 10:20:00,
2013-02-24 05:26:00,34.0,27.5,29.68,NE,45,0.4,1.1,77,0.00,,,0.00,WUHU216HW,2013-02-24 10:26:00,
2013-02-24 05:31:00,33.8,27.3,29.68,NE,45,0.0,0.7,77,0.00,,,0.00,WUHU216HW,2013-02-24 10:31:00,
2013-02-24 05:36:00,33.5,27.3,29.68,WSW,248,0.4,1.8,78,0.00,,,0.00,WUHU216HW,2013-02-24 10:36:00,
2013-02-24 05:41:00,33.5,27.6,29.68,WSW,248,0.7,2.7,79,0.00,,,0.00,WUHU216HW,2013-02-24 10:41:00,
2013-02-24 05:46:00,33.8,27.6,29.68,WNW,293,3.4,3.4,78,0.00,,,0.00,WUHU216HW,2013-02-24 10:46:00,
2013-02-24 05:51:00,34.2,28.0,29.68,WNW,293,0.4,3.4,78,0.00,,,0.00,WUHU216HW,2013-02-24 10:51:00,
2013-02-24 05:56:00,34.0,27.8,29.68,West,270,0.7,2.9,78,0.00,,,0.00,WUHU216HW,2013-02-24 10:56:00,
2013-02-24 06:01:00,34.2,27.6,29.68,WNW,293,1.6,3.8,77,0.00,,,0.00,WUHU216HW,2013-02-24 11:01:00,
2013-02-24 06:06:00,34.6,28.0,29.68,NW,315,1.8,3.8,77,0.00,,,0.00,WUHU216HW,2013-02-24 11:06:00,
2013-02-24 06:11:00,34.2,27.6,29.69,NE,45,1.1,3.6,77,0.00,,,0.00,WUHU216HW,2013-02-24 11:11:00,
2013-02-24 06:16:00,33.8,27.3,29.69,ENE,68,1.1,2.9,77,0.00,,,0.00,WUHU216HW,2013-02-24 11:16:00,
2013-02-24 06:21:00,33.5,27.6,29.69,NNW,338,3.4,3.6,79,0.00,,,0.00,WUHU216HW,2013-02-24 11:21:00,
2013-02-24 06:26:00,33.3,27.5,29.69,WNW,293,2.5,4.7,79,0.00,,,0.00,WUHU216HW,2013-02-24 11:26:00,
2013-02-24 06:31:00,33.8,27.6,29.69,NW,315,6.7,9.8,78,0.00,,,0.00,WUHU216HW,2013-02-24 11:31:00,
2013-02-24 06:36:00,34.2,27.4,29.70,NW,315,4.9,9.8,76,0.00,,,0.00,WUHU216HW,2013-02-24 11:36:00,
2013-02-24 06:41:00,34.4,27.6,29.70,NNW,338,3.4,9.4,76,0.00,,,0.00,WUHU216HW,2013-02-24 11:41:00,
2013-02-24 06:46:00,34.4,27.2,29.71,NW,315,1.8,9.4,75,0.00,,,0.00,WUHU216HW,2013-02-24 11:46:00,
2013-02-24 06:51:00,34.2,27.4,29.72,WSW,248,2.7,5.6,76,0.00,,,0.00,WUHU216HW,2013-02-24 11:51:00,
2013-02-24 06:56:00,34.2,27.4,29.72,NW,315,5.1,5.1,76,0.00,,,0.00,WUHU216HW,2013-02-24 11:56:00,
2013-02-24 07:01:00,34.2,27.0,29.72,WNW,293,3.4,5.1,75,0.00,,,0.00,WUHU216HW,2013-02-24 12:01:00,
2013-02-24 07:06:00,34.2,27.0,29.72,WNW,293,2.7,5.4,75,0.00,,,0.00,WUHU216HW,2013-02-24 12:06:00,
2013-02-24 07:11:00,34.2,27.0,29.72,NNW,338,4.9,5.4,75,0.00,,,0.00,WUHU216HW,2013-02-24 12:11:00,
2013-02-24 07:16:00,34.0,26.8,29.72,NW,315,3.4,4.9,75,0.00,,,0.00,WUHU216HW,2013-02-24 12:16:00,
2013-02-24 07:21:00,34.2,26.6,29.71,NW,315,6.7,8.5,74,0.00,,,0.00,WUHU216HW,2013-02-24 12:21:00,
2013-02-24 07:26:00,34.2,26.6,29.71,West,270,3.1,8.9,74,0.00,,,0.00,WUHU216HW,2013-02-24 12:26:00,
2013-02-24 07:31:00,34.2,26.4,29.72,NW,315,3.8,8.9,73,0.00,,,0.00,WUHU216HW,2013-02-24 12:31:00,
2013-02-24 07:36:00,34.2,26.4,29.72,NW,315,4.7,6.5,73,0.00,,,0.00,WUHU216HW,2013-02-24 12:36:00,
2013-02-24 07:41:00,34.2,26.4,29.72,NW,315,2.7,6.0,73,0.00,,,0.00,WUHU216HW,2013-02-24 12:41:00,
2013-02-24 07:46:00,34.2,26.4,29.72,WNW,293,5.1,7.6,73,0.00,,,0.00,WUHU216HW,2013-02-24 12:46:00,
2013-02-24 07:51:00,34.2,26.4,29.73,West,270,2.2,7.6,73,0.00,,,0.00,WUHU216HW,2013-02-24 12:51:00,
2013-02-24 07:56:00,34.2,26.4,29.73,NNW,338,6.9,7.8,73,0.00,,,0.00,WUHU216HW,2013-02-24 12:56:00,
2013-02-24 08:01:00,34.2,26.4,29.73,NNW,338,5.4,7.8,73,0.00,,,0.00,WUHU216HW,2013-02-24 13:01:00,
2013-02-24 08:06:00,34.2,26.0,29.73,NNW,338,3.8,6.9,72,0.00,,,0.00,WUHU216HW,2013-02-24 13:06:00,
2013-02-24 08:11:00,34.2,26.0,29.74,WNW,293,7.6,8.7,72,0.00,,,0.00,WUHU216HW,2013-02-24 13:11:00,
2013-02-24 08:16:00,34.4,26.2,29.74,NNW,338,2.5,8.7,72,0.00,,,0.00,WUHU216HW,2013-02-24 13:16:00,
2013-02-24 08:21:00,34.4,26.2,29.75,NNW,338,0.9,7.6,72,0.00,,,0.00,WUHU216HW,2013-02-24 13:21:00,
2013-02-24 08:26:00,34.7,26.3,29.74,NW,315,4.0,4.0,71,0.00,,,0.00,WUHU216HW,2013-02-24 13:26:00,
2013-02-24 08:31:00,34.7,26.9,29.75,West,270,4.0,6.7,73,0.00,,,0.00,WUHU216HW,2013-02-24 13:31:00,
2013-02-24 08:36:00,34.9,26.5,29.76,NNW,338,4.5,6.7,71,0.00,,,0.00,WUHU216HW,2013-02-24 13:36:00,
2013-02-24 08:41:00,34.9,26.5,29.76,WNW,293,3.8,6.0,71,0.00,,,0.00,WUHU216HW,2013-02-24 13:41:00,
2013-02-24 08:46:00,35.1,26.3,29.76,NW,315,4.0,6.5,70,0.00,,,0.00,WUHU216HW,2013-02-24 13:46:00,
2013-02-24 08:51:00,35.5,27.0,29.76,West,270,3.4,6.5,71,0.00,,,0.00,WUHU216HW,2013-02-24 13:51:00,
2013-02-24 08:56:00,35.6,26.5,29.76,NNW,338,3.8,4.3,69,0.00,,,0.00,WUHU216HW,2013-02-24 13:56:00,
2013-02-24 09:01:00,35.5,26.3,29.76,WSW,248,3.1,5.8,69,0.00,,,0.00,WUHU216HW,2013-02-24 14:01:00,
2013-02-24 09:06:00,35.6,26.1,29.76,WNW,293,5.1,5.8,68,0.00,,,0.00,WUHU216HW,2013-02-24 14:06:00,
2013-02-24 09:11:00,35.6,25.7,29.76,NNW,338,3.4,7.8,67,0.00,,,0.00,WUHU216HW,2013-02-24 14:11:00,
2013-02-24 09:16:00,35.5,25.6,29.76,NW,315,4.3,7.8,67,0.00,,,0.00,WUHU216HW,2013-02-24 14:16:00,
2013-02-24 09:21:00,35.6,25.7,29.76,North,0,4.0,7.6,67,0.00,,,0.00,WUHU216HW,2013-02-24 14:21:00,
2013-02-24 09:26:00,35.6,25.7,29.76,WSW,248,6.7,7.8,67,0.00,,,0.00,WUHU216HW,2013-02-24 14:26:00,
2013-02-24 09:31:00,36.0,25.8,29.76,WNW,293,6.3,8.5,66,0.00,,,0.00,WUHU216HW,2013-02-24 14:31:00,
2013-02-24 09:36:00,36.0,25.4,29.76,West,270,8.5,14.1,65,0.00,,,0.00,WUHU216HW,2013-02-24 14:36:00,
2013-02-24 09:41:00,35.8,24.9,29.77,WNW,293,13.9,14.1,64,0.00,,,0.00,WUHU216HW,2013-02-24 14:41:00,
2013-02-24 09:46:00,35.6,24.7,29.76,NNW,338,8.5,13.9,64,0.00,,,0.00,WUHU216HW,2013-02-24 14:46:00,
2013-02-24 09:51:00,35.8,24.9,29.76,WSW,248,6.9,13.9,64,0.00,,,0.00,WUHU216HW,2013-02-24 14:51:00,
2013-02-24 09:56:00,36.4,25.8,29.76,NW,315,8.3,13.4,65,0.00,,,0.00,WUHU216HW,2013-02-24 14:56:00,
2013-02-24 10:01:00,36.7,24.9,29.76,NW,315,6.5,13.6,62,0.00,,,0.00,WUHU216HW,2013-02-24 15:01:00,
2013-02-24 10:06:00,36.9,25.5,29.76,NW,315,10.3,13.6,63,0.00,,,0.00,WUHU216HW,2013-02-24 15:06:00,
2013-02-24 10:11:00,36.7,24.9,29.76,NW,315,10.7,11.4,62,0.00,,,0.00,WUHU216HW,2013-02-24 15:11:00,
2013-02-24 10:16:00,36.7,24.9,29.76,WNW,293,13.4,13.4,62,0.00,,,0.00,WUHU216HW,2013-02-24 15:16:00,
2013-02-24 10:21:00,37.1,25.3,29.76,West,270,7.6,13.4,62,0.00,,,0.00,WUHU216HW,2013-02-24 15:21:00,
2013-02-24 10:26:00,37.3,25.0,29.76,NNW,338,7.8,12.8,61,0.00,,,0.00,WUHU216HW,2013-02-24 15:26:00,
2013-02-24 10:31:00,38.5,26.9,29.76,NNW,338,8.1,12.8,63,0.00,,,0.00,WUHU216HW,2013-02-24 15:31:00,
2013-02-24 10:36:00,38.5,26.2,29.76,NNW,338,4.9,11.2,61,0.00,,,0.00,WUHU216HW,2013-02-24 15:36:00,
2013-02-24 10:41:00,38.9,26.1,29.76,NW,315,15.0,15.0,60,0.00,,,0.00,WUHU216HW,2013-02-24 15:41:00,
2013-02-24 10:46:00,39.4,27.0,29.76,WSW,248,4.9,15.0,61,0.00,,,0.00,WUHU216HW,2013-02-24 15:46:00,
2013-02-24 10:51:00,40.3,27.1,29.76,WSW,248,3.4,15.0,59,0.00,,,0.00,WUHU216HW,2013-02-24 15:51:00,
2013-02-24 10:56:00,41.2,26.2,29.76,NW,315,5.8,8.9,55,0.00,,,0.00,WUHU216HW,2013-02-24 15:56:00,
2013-02-24 11:01:00,40.9,25.4,29.76,NNW,338,5.8,10.3,54,0.00,,,0.00,WUHU216HW,2013-02-24 16:01:00,
2013-02-24 11:06:00,41.0,25.1,29.76,NW,315,6.3,10.3,53,0.00,,,0.00,WUHU216HW,2013-02-24 16:06:00,
2013-02-24 11:11:00,40.7,25.2,29.76,WNW,293,8.3,9.8,54,0.00,,,0.00,WUHU216HW,2013-02-24 16:11:00,
2013-02-24 11:16:00,40.7,25.2,29.76,WNW,293,7.6,13.2,54,0.00,,,0.00,WUHU216HW,2013-02-24 16:16:00,
2013-02-24 11:21:00,40.3,24.8,29.76,West,270,5.8,13.2,54,0.00,,,0.00,WUHU216HW,2013-02-24 16:21:00,
2013-02-24 11:26:00,40.1,24.8,29.76,WNW,293,5.1,10.7,54,0.00,,,0.00,WUHU216HW,2013-02-24 16:26:00,
2013-02-24 11:31:00,40.3,25.7,29.77,WSW,248,5.1,8.3,56,0.00,,,0.00,WUHU216HW,2013-02-24 16:31:00,
2013-02-24 11:36:00,40.1,24.8,29.76,NW,315,8.3,8.3,54,0.00,,,0.00,WUHU216HW,2013-02-24 16:36:00,
2013-02-24 11:41:00,40.0,25.0,29.76,WNW,293,7.6,14.1,55,0.00,,,0.00,WUHU216HW,2013-02-24 16:41:00,
2013-02-24 11:46:00,40.0,24.6,29.76,NNW,338,12.3,14.1,54,0.00,,,0.00,WUHU216HW,2013-02-24 16:46:00,
2013-02-24 11:51:00,40.1,23.9,29.76,NW,315,15.2,15.2,52,0.00,,,0.00,WUHU216HW,2013-02-24 16:51:00,
2013-02-24 11:56:00,40.1,23.4,29.76,West,270,8.5,16.8,51,0.00,,,0.00,WUHU216HW,2013-02-24 16:56:00,
2013-02-24 12:01:00,40.0,24.1,29.76,WSW,248,6.5,17.7,53,0.00,,,0.00,WUHU216HW,2013-02-24 17:01:00,
2013-02-24 12:06:00,40.3,24.5,29.76,WSW,248,6.9,17.7,53,0.00,,,0.00,WUHU216HW,2013-02-24 17:06:00,
2013-02-24 12:11:00,40.5,24.6,29.76,WNW,293,6.5,11.0,53,0.00,,,0.00,WUHU216HW,2013-02-24 17:11:00,
2013-02-24 12:16:00,40.9,24.9,29.76,WNW,293,4.3,9.8,53,0.00,,,0.00,WUHU216HW,2013-02-24 17:16:00,
2013-02-24 12:21:00,41.2,24.9,29.76,WSW,248,2.7,8.3,52,0.00,,,0.00,WUHU216HW,2013-02-24 17:21:00,
2013-02-24 12:26:00,41.8,26.3,29.76,NW,315,1.1,7.4,54,0.00,,,0.00,WUHU216HW,2013-02-24 17:26:00,
2013-02-24 12:31:00,41.9,25.1,29.75,WSW,248,4.3,8.9,51,0.00,,,0.00,WUHU216HW,2013-02-24 17:31:00,
2013-02-24 12:36:00,42.3,24.5,29.75,West,270,8.1,12.5,49,0.00,,,0.00,WUHU216HW,2013-02-24 17:36:00,
2013-02-24 12:41:00,42.8,24.5,29.75,WNW,293,12.1,12.5,48,0.00,,,0.00,WUHU216HW,2013-02-24 17:41:00,
2013-02-24 12:46:00,42.5,23.0,29.75,NW,315,15.0,16.8,46,0.00,,,0.00,WUHU216HW,2013-02-24 17:46:00,
2013-02-24 12:51:00,42.5,24.7,29.75,WSW,248,7.8,16.8,49,0.00,,,0.00,WUHU216HW,2013-02-24 17:51:00,
2013-02-24 12:56:00,42.8,25.0,29.75,NNW,338,11.9,15.7,49,0.00,,,0.00,WUHU216HW,2013-02-24 17:56:00,
2013-02-24 13:01:00,43.0,23.6,29.75,NW,315,5.4,13.4,46,0.00,,,0.00,WUHU216HW,2013-02-24 18:01:00,
2013-02-24 13:06:00,43.6,25.1,29.75,NW,315,6.5,13.4,48,0.00,,,0.00,WUHU216HW,2013-02-24 18:06:00,
2013-02-24 13:11:00,44.8,26.3,29.75,NNW,338,4.7,9.8,48,0.00,,,0.00,WUHU216HW,2013-02-24 18:11:00,
2013-02-24 13:16:00,44.6,25.6,29.75,WSW,248,2.5,8.5,47,0.00,,,0.00,WUHU216HW,2013-02-24 18:16:00,
2013-02-24 13:21:00,45.7,25.5,29.75,NNW,338,0.7,8.5,45,0.00,,,0.00,WUHU216HW,2013-02-24 18:21:00,
2013-02-24 13:26:00,45.5,25.3,29.74,NNW,338,3.4,7.4,45,0.00,,,0.00,WUHU216HW,2013-02-24 18:26:00,
2013-02-24 13:31:00,46.4,27.7,29.74,WSW,248,2.0,5.6,48,0.00,,,0.00,WUHU216HW,2013-02-24 18:31:00,
2013-02-24 13:36:00,47.3,28.0,29.74,NW,315,4.7,6.3,47,0.00,,,0.00,WUHU216HW,2013-02-24 18:36:00,
2013-02-24 13:41:00,46.3,25.9,29.74,NW,315,5.1,9.2,45,0.00,,,0.00,WUHU216HW,2013-02-24 18:41:00,
2013-02-24 13:46:00,45.7,23.9,29.74,NW,315,8.1,9.2,42,0.00,,,0.00,WUHU216HW,2013-02-24 18:46:00,
2013-02-24 13:51:00,44.6,23.9,29.74,NNW,338,12.3,14.5,44,0.00,,,0.00,WUHU216HW,2013-02-24 18:51:00,
2013-02-24 13:56:00,44.8,23.6,29.74,NW,315,8.7,14.5,43,0.00,,,0.00,WUHU216HW,2013-02-24 18:56:00,
2013-02-24 14:01:00,45.4,23.5,29.74,NNW,338,8.1,12.3,42,0.00,,,0.00,WUHU216HW,2013-02-24 19:01:00,
2013-02-24 14:06:00,44.6,23.9,29.74,NW,315,2.9,8.7,44,0.00,,,0.00,WUHU216HW,2013-02-24 19:06:00,
2013-02-24 14:11:00,45.0,23.8,29.74,WSW,248,5.4,8.5,43,0.00,,,0.00,WUHU216HW,2013-02-24 19:11:00,
2013-02-24 14:16:00,44.8,23.1,29.74,NNW,338,6.9,10.1,42,0.00,,,0.00,WUHU216HW,2013-02-24 19:16:00,
2013-02-24 14:21:00,44.8,22.0,29.74,West,270,6.9,10.5,40,0.00,,,0.00,WUHU216HW,2013-02-24 19:21:00,
2013-02-24 14:26:00,44.5,22.1,29.75,WSW,248,8.5,10.5,41,0.00,,,0.00,WUHU216HW,2013-02-24 19:26:00,
2013-02-24 14:32:00,43.9,21.2,29.75,West,270,8.5,10.1,40,0.00,,,0.00,WUHU216HW,2013-02-24 19:32:00,
2013-02-24 14:36:00,43.2,19.8,29.75,West,270,8.5,10.7,39,0.00,,,0.00,WUHU216HW,2013-02-24 19:36:00,
2013-02-24 14:42:00,42.8,20.2,29.75,WSW,248,8.1,13.6,40,0.00,,,0.00,WUHU216HW,2013-02-24 19:42:00,
2013-02-24 14:47:00,43.0,20.4,29.74,WNW,293,6.9,13.6,40,0.00,,,0.00,WUHU216HW,2013-02-24 19:47:00,
2013-02-24 14:51:00,42.8,20.7,29.75,NNW,338,8.9,13.6,41,0.00,,,0.00,WUHU216HW,2013-02-24 19:51:00,
2013-02-24 14:57:00,42.8,21.8,29.75,NW,315,6.9,13.6,43,0.00,,,0.00,WUHU216HW,2013-02-24 19:57:00,
2013-02-24 15:02:00,43.2,22.2,29.75,SSW,203,6.9,11.4,43,0.00,,,0.00,WUHU216HW,2013-02-24 20:02:00,
2013-02-24 15:07:00,42.8,20.7,29.75,WSW,248,7.8,13.4,41,0.00,,,0.00,WUHU216HW,2013-02-24 20:07:00,
2013-02-24 15:12:00,42.7,21.1,29.75,WNW,293,12.8,16.3,42,0.00,,,0.00,WUHU216HW,2013-02-24 20:12:00,
2013-02-24 15:17:00,42.5,21.4,29.75,NW,315,9.4,16.3,43,0.00,,,0.00,WUHU216HW,2013-02-24 20:17:00,
2013-02-24 15:22:00,42.1,21.6,29.76,WNW,293,9.8,13.4,44,0.00,,,0.00,WUHU216HW,2013-02-24 20:22:00,
2013-02-24 15:27:00,42.1,20.6,29.76,NNW,338,10.7,15.7,42,0.00,,,0.00,WUHU216HW,2013-02-24 20:27:00,
2013-02-24 15:32:00,41.8,21.3,29.76,West,270,11.4,16.1,44,0.00,,,0.00,WUHU216HW,2013-02-24 20:32:00,
2013-02-24 15:37:00,41.6,21.2,29.76,WNW,293,13.9,16.1,44,0.00,,,0.00,WUHU216HW,2013-02-24 20:37:00,
2013-02-24 15:42:00,41.4,21.0,29.76,NW,315,12.1,18.6,44,0.00,,,0.00,WUHU216HW,2013-02-24 20:42:00,
2013-02-24 15:47:00,41.4,21.5,29.76,West,270,10.5,18.6,45,0.00,,,0.00,WUHU216HW,2013-02-24 20:47:00,
2013-02-24 15:52:00,41.4,21.5,29.76,NW,315,5.6,14.3,45,0.00,,,0.00,WUHU216HW,2013-02-24 20:52:00,
2013-02-24 15:57:00,41.4,22.1,29.76,West,270,7.6,17.9,46,0.00,,,0.00,WUHU216HW,2013-02-24 20:57:00,
2013-02-24 16:02:00,41.4,22.1,29.76,SW,225,6.0,17.9,46,0.00,,,0.00,WUHU216HW,2013-02-24 21:02:00,
2013-02-24 16:07:00,41.4,21.5,29.76,WSW,248,5.4,12.1,45,0.00,,,0.00,WUHU216HW,2013-02-24 21:07:00,
2013-02-24 16:12:00,41.4,21.0,29.76,WSW,248,4.0,12.1,44,0.00,,,0.00,WUHU216HW,2013-02-24 21:12:00,
2013-02-24 16:17:00,41.6,22.2,29.76,WNW,293,4.9,12.1,46,0.00,,,0.00,WUHU216HW,2013-02-24 21:17:00,
2013-02-24 16:22:00,41.8,22.3,29.76,NNW,338,7.6,8.9,46,0.00,,,0.00,WUHU216HW,2013-02-24 21:22:00,
2013-02-24 16:27:00,41.2,21.3,29.77,WNW,293,9.2,11.9,45,0.00,,,0.00,WUHU216HW,2013-02-24 21:27:00,
2013-02-24 16:32:00,41.0,21.2,29.77,WNW,293,3.4,11.9,45,0.00,,,0.00,WUHU216HW,2013-02-24 21:32:00,
2013-02-24 16:37:00,41.0,22.2,29.77,NW,315,6.3,10.3,47,0.00,,,0.00,WUHU216HW,2013-02-24 21:37:00,
2013-02-24 16:42:00,40.9,21.5,29.77,WNW,293,3.4,10.3,46,0.00,,,0.00,WUHU216HW,2013-02-24 21:42:00,
2013-02-24 16:47:00,40.7,21.9,29.77,WSW,248,6.7,9.8,47,0.00,,,0.00,WUHU216HW,2013-02-24 21:47:00,
2013-02-24 16:52:00,40.7,22.4,29.77,West,270,6.3,11.9,48,0.00,,,0.00,WUHU216HW,2013-02-24 21:52:00,
2013-02-24 16:57:00,40.3,22.1,29.77,NW,315,7.2,11.9,48,0.00,,,0.00,WUHU216HW,2013-02-24 21:57:00,
2013-02-24 17:02:00,40.1,21.9,29.78,West,270,10.1,11.4,48,0.00,,,0.00,WUHU216HW,2013-02-24 22:02:00,
2013-02-24 17:07:00,40.0,22.2,29.78,West,270,4.3,10.7,49,0.00,,,0.00,WUHU216HW,2013-02-24 22:07:00,
2013-02-24 17:12:00,40.0,22.2,29.78,WSW,248,2.5,10.5,49,0.00,,,0.00,WUHU216HW,2013-02-24 22:12:00,
2013-02-24 17:17:00,39.8,22.6,29.78,NW,315,3.1,6.3,50,0.00,,,0.00,WUHU216HW,2013-02-24 22:17:00,
2013-02-24 17:22:00,39.8,22.2,29.78,WNW,293,5.4,8.7,49,0.00,,,0.00,WUHU216HW,2013-02-24 22:22:00,
2013-02-24 17:27:00,39.4,22.3,29.78,NNW,338,6.7,8.7,50,0.00,,,0.00,WUHU216HW,2013-02-24 22:27:00,
2013-02-24 17:32:00,39.2,21.6,29.78,NNW,338,5.6,10.3,49,0.00,,,0.00,WUHU216HW,2013-02-24 22:32:00,
2013-02-24 17:37:00,38.9,21.8,29.78,NW,315,6.3,10.3,50,0.00,,,0.00,WUHU216HW,2013-02-24 22:37:00,
2013-02-24 17:42:00,38.7,21.7,29.78,NW,315,6.3,9.2,50,0.00,,,0.00,WUHU216HW,2013-02-24 22:42:00,
2013-02-24 17:47:00,38.3,21.8,29.79,NW,315,4.3,8.5,51,0.00,,,0.00,WUHU216HW,2013-02-24 22:47:00,
2013-02-24 17:52:00,38.0,21.4,29.79,NNW,338,5.4,7.6,51,0.00,,,0.00,WUHU216HW,2013-02-24 22:52:00,
2013-02-24 17:57:00,37.8,21.7,29.79,NW,315,3.8,6.3,52,0.00,,,0.00,WUHU216HW,2013-02-24 22:57:00,
2013-02-24 18:02:00,37.4,22.2,29.79,NNW,338,6.5,8.5,54,0.00,,,0.00,WUHU216HW,2013-02-24 23:02:00,
2013-02-24 18:07:00,37.1,22.0,29.80,WNW,293,6.9,8.5,54,0.00,,,0.00,WUHU216HW,2013-02-24 23:07:00,
2013-02-24 18:12:00,36.9,22.2,29.80,WNW,293,8.1,10.1,55,0.00,,,0.00,WUHU216HW,2013-02-24 23:12:00,
2013-02-24 18:17:00,36.7,22.1,29.80,NNW,338,5.6,10.1,55,0.00,,,0.00,WUHU216HW,2013-02-24 23:17:00,
2013-02-24 18:22:00,36.5,22.3,29.81,NW,315,3.6,9.8,56,0.00,,,0.00,WUHU216HW,2013-02-24 23:22:00,
2013-02-24 18:27:00,36.4,22.1,29.81,NNW,338,5.1,7.8,56,0.00,,,0.00,WUHU216HW,2013-02-24 23:27:00,
2013-02-24 18:32:00,36.2,22.0,29.82,NW,315,4.7,7.8,56,0.00,,,0.00,WUHU216HW,2013-02-24 23:32:00,
2013-02-24 18:37:00,36.0,21.8,29.81,NW,315,4.0,7.2,56,0.00,,,0.00,WUHU216HW,2013-02-24 23:37:00,
2013-02-24 18:42:00,35.8,22.1,29.82,NW,315,6.3,8.1,57,0.00,,,0.00,WUHU216HW,2013-02-24 23:42:00,
2013-02-24 18:47:00,35.6,22.0,29.82,WNW,293,3.1,8.1,57,0.00,,,0.00,WUHU216HW,2013-02-24 23:47:00,
2013-02-24 18:52:00,35.5,22.6,29.83,NW,315,4.7,7.6,59,0.00,,,0.00,WUHU216HW,2013-02-24 23:52:00,
2013-02-24 18:57:00,35.3,22.0,29.83,NNW,338,5.1,10.5,58,0.00,,,0.00,WUHU216HW,2013-02-24 23:57:00,
2013-02-24 19:02:00,35.3,22.0,29.83,WSW,248,1.3,10.5,58,0.00,,,0.00,WUHU216HW,2013-02-25 00:02:00,
2013-02-24 19:07:00,35.1,22.2,29.83,WNW,293,4.5,6.0,59,0.00,,,0.00,WUHU216HW,2013-02-25 00:07:00,
2013-02-24 19:12:00,34.9,22.1,29.83,SW,225,4.7,6.9,59,0.00,,,0.00,WUHU216HW,2013-02-25 00:12:00,
2013-02-24 19:17:00,34.9,22.1,29.83,West,270,2.5,6.9,59,0.00,,,0.00,WUHU216HW,2013-02-25 00:17:00,
2013-02-24 19:22:00,34.7,21.4,29.83,WNW,293,1.8,4.7,58,0.00,,,0.00,WUHU216HW,2013-02-25 00:22:00,
2013-02-24 19:27:00,34.6,21.2,29.83,West,270,0.4,3.6,58,0.00,,,0.00,WUHU216HW,2013-02-25 00:27:00,
2013-02-24 19:32:00,34.4,21.1,29.84,NNW,338,0.4,2.5,58,0.00,,,0.00,WUHU216HW,2013-02-25 00:32:00,
2013-02-24 19:37:00,34.0,20.7,29.84,NNW,338,0.7,2.5,58,0.00,,,0.00,WUHU216HW,2013-02-25 00:37:00,
2013-02-24 19:42:00,33.5,20.7,29.84,North,0,0.0,1.1,59,0.00,,,0.00,WUHU216HW,2013-02-25 00:42:00,
2013-02-24 19:47:00,32.9,20.6,29.84,ENE,68,0.9,0.9,60,0.00,,,0.00,WUHU216HW,2013-02-25 00:47:00,
2013-02-24 19:52:00,32.8,20.4,29.84,WNW,293,0.9,1.8,60,0.00,,,0.00,WUHU216HW,2013-02-25 00:52:00,
2013-02-24 19:57:00,32.8,20.8,29.84,NW,315,1.1,1.8,61,0.00,,,0.00,WUHU216HW,2013-02-25 00:57:00,
2013-02-24 20:02:00,32.6,20.6,29.84,ENE,68,0.7,1.3,61,0.00,,,0.00,WUHU216HW,2013-02-25 01:02:00,
2013-02-24 20:07:00,32.0,20.5,29.84,ENE,68,0.0,1.1,62,0.00,,,0.00,WUHU216HW,2013-02-25 01:07:00,
2013-02-24 20:12:00,31.9,20.3,29.84,ENE,68,0.0,0.7,62,0.00,,,0.00,WUHU216HW,2013-02-25 01:12:00,
2013-02-24 20:17:00,31.7,20.5,29.85,East,90,0.0,1.1,63,0.00,,,0.00,WUHU216HW,2013-02-25 01:17:00,
2013-02-24 20:22:00,31.3,19.8,29.85,ESE,113,0.0,1.3,62,0.00,,,0.00,WUHU216HW,2013-02-25 01:22:00,
2013-02-24 20:27:00,31.1,19.6,29.85,SE,135,0.0,1.3,62,0.00,,,0.00,WUHU216HW,2013-02-25 01:27:00,
2013-02-24 20:32:00,31.0,19.8,29.85,SE,135,0.2,0.9,63,0.00,,,0.00,WUHU216HW,2013-02-25 01:32:00,
2013-02-24 20:37:00,30.6,20.2,29.85,NE,45,0.4,0.9,65,0.00,,,0.00,WUHU216HW,2013-02-25 01:37:00,
2013-02-24 20:42:00,30.4,20.3,29.85,NNE,23,0.0,0.7,66,0.00,,,0.00,WUHU216HW,2013-02-25 01:42:00,
2013-02-24 20:47:00,30.2,20.2,29.86,NW,315,0.9,1.6,66,0.00,,,0.00,WUHU216HW,2013-02-25 01:47:00,
2013-02-24 20:52:00,30.6,20.9,29.86,NNE,23,0.4,1.6,67,0.00,,,0.00,WUHU216HW,2013-02-25 01:52:00,
2013-02-24 20:57:00,30.8,21.4,29.86,ENE,68,1.3,1.6,68,0.00,,,0.00,WUHU216HW,2013-02-25 01:57:00,
2013-02-24 21:02:00,31.0,21.2,29.86,North,0,0.4,2.5,67,0.00,,,0.00,WUHU216HW,2013-02-25 02:02:00,
2013-02-24 21:07:00,31.0,21.2,29.87,NNW,338,0.4,2.5,67,0.00,,,0.00,WUHU216HW,2013-02-25 02:07:00,
2013-02-24 21:12:00,30.8,21.1,29.87,NNE,23,0.0,2.0,67,0.00,,,0.00,WUHU216HW,2013-02-25 02:12:00,
2013-02-24 21:17:00,30.6,20.5,29.87,North,0,0.0,1.1,66,0.00,,,0.00,WUHU216HW,2013-02-25 02:17:00,
2013-02-24 21:22:00,30.4,20.7,29.87,North,0,0.0,1.8,67,0.00,,,0.00,WUHU216HW,2013-02-25 02:22:00,
2013-02-24 21:27:00,30.2,20.9,29.87,NNE,23,0.4,1.8,68,0.00,,,0.00,WUHU216HW,2013-02-25 02:27:00,
2013-02-24 21:32:00,30.1,20.7,29.87,NNW,338,0.0,1.8,68,0.00,,,0.00,WUHU216HW,2013-02-25 02:32:00,
2013-02-24 21:37:00,30.1,20.7,29.87,NNW,338,0.0,1.8,68,0.00,,,0.00,WUHU216HW,2013-02-25 02:37:00,
2013-02-24 21:42:00,29.9,20.9,29.87,NNW,338,0.9,1.6,69,0.00,,,0.00,WUHU216HW,2013-02-25 02:42:00,
2013-02-24 21:47:00,29.9,20.9,29.87,North,0,0.4,1.8,69,0.00,,,0.00,WUHU216HW,2013-02-25 02:47:00,
2013-02-24 21:52:00,29.7,21.2,29.87,North,0,0.4,1.8,70,0.00,,,0.00,WUHU216HW,2013-02-25 02:52:00,
2013-02-24 21:57:00,29.5,21.0,29.88,NNW,338,1.8,2.5,70,0.00,,,0.00,WUHU216HW,2013-02-25 02:57:00,
2013-02-24 22:02:00,29.3,20.8,29.88,NNW,338,1.3,3.8,70,0.00,,,0.00,WUHU216HW,2013-02-25 03:02:00,
2013-02-24 22:07:00,29.3,21.1,29.88,NNW,338,1.8,3.8,71,0.00,,,0.00,WUHU216HW,2013-02-25 03:07:00,
2013-02-24 22:12:00,29.2,21.2,29.88,NNW,338,1.3,4.0,72,0.00,,,0.00,WUHU216HW,2013-02-25 03:12:00,
2013-02-24 22:17:00,29.2,21.2,29.88,NNW,338,3.4,4.0,72,0.00,,,0.00,WUHU216HW,2013-02-25 03:17:00,
2013-02-24 22:22:00,29.2,21.2,29.88,NW,315,0.4,3.6,72,0.00,,,0.00,WUHU216HW,2013-02-25 03:22:00,
2013-02-24 22:27:00,29.2,21.2,29.88,North,0,0.9,3.4,72,0.00,,,0.00,WUHU216HW,2013-02-25 03:27:00,
2013-02-24 22:32:00,29.0,21.1,29.88,NW,315,2.2,3.4,72,0.00,,,0.00,WUHU216HW,2013-02-25 03:32:00,
2013-02-24 22:37:00,28.8,21.3,29.88,NNW,338,2.0,3.4,73,0.00,,,0.00,WUHU216HW,2013-02-25 03:37:00,
2013-02-24 22:42:00,28.8,21.3,29.88,NNW,338,2.9,5.1,73,0.00,,,0.00,WUHU216HW,2013-02-25 03:42:00,
2013-02-24 22:47:00,28.8,21.3,29.88,NNW,338,4.9,5.1,73,0.00,,,0.00,WUHU216HW,2013-02-25 03:47:00,
2013-02-24 22:52:00,28.6,21.1,29.87,NNW,338,0.9,4.9,73,0.00,,,0.00,WUHU216HW,2013-02-25 03:52:00,
2013-02-24 22:57:00,28.6,21.1,29.87,NNW,338,0.0,4.9,73,0.00,,,0.00,WUHU216HW,2013-02-25 03:57:00,
2013-02-24 23:02:00,28.4,20.9,29.87,NW,315,0.9,2.9,73,0.00,,,0.00,WUHU216HW,2013-02-25 04:02:00,
2013-02-24 23:07:00,28.4,20.9,29.87,NNW,338,0.4,2.9,73,0.00,,,0.00,WUHU216HW,2013-02-25 04:07:00,
2013-02-24 23:12:00,28.4,20.9,29.87,NNW,338,0.4,2.7,73,0.00,,,0.00,WUHU216HW,2013-02-25 04:12:00,
2013-02-24 23:17:00,28.4,20.9,29.87,NNW,338,0.2,2.0,73,0.00,,,0.00,WUHU216HW,2013-02-25 04:17:00,
2013-02-24 23:22:00,28.3,20.7,29.88,North,0,0.4,2.7,73,0.00,,,0.00,WUHU216HW,2013-02-25 04:22:00,
2013-02-24 23:27:00,28.3,20.7,29.88,NE,45,0.4,3.4,73,0.00,,,0.00,WUHU216HW,2013-02-25 04:27:00,
2013-02-24 23:32:00,28.1,20.5,29.88,NNW,338,0.9,3.4,73,0.00,,,0.00,WUHU216HW,2013-02-25 04:32:00,
2013-02-24 23:37:00,28.1,20.5,29.88,NNW,338,0.0,1.6,73,0.00,,,0.00,WUHU216HW,2013-02-25 04:37:00,
2013-02-24 23:43:00,27.9,20.3,29.88,West,270,0.9,1.6,73,0.00,,,0.00,WUHU216HW,2013-02-25 04:43:00,
2013-02-24 23:48:00,27.9,20.7,29.88,NNW,338,2.5,4.0,74,0.00,,,0.00,WUHU216HW,2013-02-25 04:48:00,
2013-02-24 23:53:00,27.9,20.3,29.88,NNE,23,0.0,4.0,73,0.00,,,0.00,WUHU216HW,2013-02-25 04:53:00,
2013-02-24 23:58:00,27.7,20.2,29.88,NNW,338,0.4,2.5,73,0.00,,,0.00,WUHU216HW,2013-02-25 04:58:00,